sensor_id;sensor_type;location;lat;lon;timestamp;pressure;altitude;pressure_sealevel;temperature;humidity
25238;BME280;13185;50.872;5.306;2024-03-23T00:53:58;100839.28;;;7.18;100.00
25238;BME280;13185;50.872;5.306;2024-03-23T00:56:23;100826.09;;;7.15;100.00
25238;BME280;13185;50.872;5.306;2024-03-23T00:58:49;100818.88;;;7.17;100.00
25238;BME280;13185;50.872;5.306;2024-03-23T01:01:15;100814.50;;;7.16;100.00
25238;BME280;13185;50.872;5.306;2024-03-23T01:03:41;100819.69;;;7.19;100.00
25238;BME280;13185;50.872;5.306;2024-03-23T01:06:06;100818.81;;;7.19;100.00
25238;BME280;13185;50.872;5.306;2024-03-23T01:08:32;100811.75;;;7.18;100.00
25238;BME280;13185;50.872;5.306;2024-03-23T01:10:59;100815.22;;;7.20;100.00
25238;BME280;13185;50.872;5.306;2024-03-23T01:13:25;100807.28;;;7.18;100.00
25238;BME280;13185;50.872;5.306;2024-03-23T01:15:51;100797.41;;;7.20;100.00
25238;BME280;13185;50.872;5.306;2024-03-23T01:18:22;100788.47;;;7.21;100.00
25238;BME280;13185;50.872;5.306;2024-03-23T01:20:48;100781.41;;;7.20;100.00
25238;BME280;13185;50.872;5.306;2024-03-23T01:23:14;100774.25;;;7.21;100.00
25238;BME280;13185;50.872;5.306;2024-03-23T01:25:40;100754.72;;;7.20;100.00
25238;BME280;13185;50.872;5.306;2024-03-23T01:28:06;100761.72;;;7.23;100.00
25238;BME280;13185;50.872;5.306;2024-03-23T01:30:35;100762.56;;;7.23;100.00
25238;BME280;13185;50.872;5.306;2024-03-23T01:33:01;100774.25;;;7.21;100.00
25238;BME280;13185;50.872;5.306;2024-03-23T01:35:26;100775.25;;;7.18;100.00
25238;BME280;13185;50.872;5.306;2024-03-23T01:37:52;100762.00;;;7.17;100.00
25238;BME280;13185;50.872;5.306;2024-03-23T01:40:17;100755.91;;;7.15;100.00
25238;BME280;13185;50.872;5.306;2024-03-23T01:42:55;100754.34;;;7.11;100.00
25238;BME280;13185;50.872;5.306;2024-03-23T01:45:21;100757.16;;;7.08;100.00
25238;BME280;13185;50.872;5.306;2024-03-23T01:47:46;100773.25;;;7.06;100.00
25238;BME280;13185;50.872;5.306;2024-03-23T01:50:13;100779.50;;;7.05;100.00
25238;BME280;13185;50.872;5.306;2024-03-23T01:52:38;100765.31;;;7.05;100.00
25238;BME280;13185;50.872;5.306;2024-03-23T01:55:04;100747.59;;;7.04;100.00
25238;BME280;13185;50.872;5.306;2024-03-23T01:57:30;100730.91;;;7.00;100.00
25238;BME280;13185;50.872;5.306;2024-03-23T01:59:55;100733.56;;;7.00;100.00
25238;BME280;13185;50.872;5.306;2024-03-23T02:02:26;100727.44;;;6.98;100.00
25238;BME280;13185;50.872;5.306;2024-03-23T02:04:51;100745.97;;;7.01;100.00
25238;BME280;13185;50.872;5.306;2024-03-23T02:07:17;100764.72;;;7.00;100.00
25238;BME280;13185;50.872;5.306;2024-03-23T02:09:43;100769.09;;;7.01;100.00
25238;BME280;13185;50.872;5.306;2024-03-23T02:12:09;100787.69;;;7.02;100.00
25238;BME280;13185;50.872;5.306;2024-03-23T02:14:34;100778.03;;;7.00;100.00
25238;BME280;13185;50.872;5.306;2024-03-23T02:17:00;100784.31;;;6.99;100.00
25238;BME280;13185;50.872;5.306;2024-03-23T02:19:25;100784.38;;;6.97;100.00
25238;BME280;13185;50.872;5.306;2024-03-23T02:21:51;100797.09;;;6.92;100.00
25238;BME280;13185;50.872;5.306;2024-03-23T02:24:17;100797.38;;;6.86;100.00
25238;BME280;13185;50.872;5.306;2024-03-23T02:26:42;100790.56;;;6.80;100.00
25238;BME280;13185;50.872;5.306;2024-03-23T02:29:08;100796.94;;;6.78;100.00
25238;BME280;13185;50.872;5.306;2024-03-23T02:31:35;100795.19;;;6.77;100.00
25238;BME280;13185;50.872;5.306;2024-03-23T02:34:01;100775.66;;;6.76;100.00
25238;BME280;13185;50.872;5.306;2024-03-23T02:36:26;100765.94;;;6.75;100.00
25238;BME280;13185;50.872;5.306;2024-03-23T02:38:52;100755.28;;;6.75;100.00
25238;BME280;13185;50.872;5.306;2024-03-23T02:41:17;100749.09;;;6.75;100.00
25238;BME280;13185;50.872;5.306;2024-03-23T02:43:50;100741.16;;;6.73;100.00
25238;BME280;13185;50.872;5.306;2024-03-23T02:46:16;100738.50;;;6.73;100.00
25238;BME280;13185;50.872;5.306;2024-03-23T02:48:42;100736.69;;;6.74;100.00
25238;BME280;13185;50.872;5.306;2024-03-23T02:51:08;100733.19;;;6.73;100.00
25238;BME280;13185;50.872;5.306;2024-03-23T02:53:33;100740.22;;;6.74;100.00
25238;BME280;13185;50.872;5.306;2024-03-23T02:55:59;100733.19;;;6.73;100.00
25238;BME280;13185;50.872;5.306;2024-03-23T02:58:24;100746.41;;;6.75;100.00
25238;BME280;13185;50.872;5.306;2024-03-23T03:00:50;100749.25;;;6.72;100.00
25238;BME280;13185;50.872;5.306;2024-03-23T03:03:15;100756.31;;;6.73;100.00
25238;BME280;13185;50.872;5.306;2024-03-23T03:05:41;100765.25;;;6.72;100.00
25238;BME280;13185;50.872;5.306;2024-03-23T03:08:06;100768.75;;;6.72;100.00
25238;BME280;13185;50.872;5.306;2024-03-23T03:10:32;100768.94;;;6.69;100.00
25238;BME280;13185;50.872;5.306;2024-03-23T03:13:00;100777.88;;;6.68;100.00
25238;BME280;13185;50.872;5.306;2024-03-23T03:15:26;100779.66;;;6.68;100.00
25238;BME280;13185;50.872;5.306;2024-03-23T03:17:51;100772.59;;;6.66;100.00
25238;BME280;13185;50.872;5.306;2024-03-23T03:20:17;100781.59;;;6.64;100.00
25238;BME280;13185;50.872;5.306;2024-03-23T03:22:43;100778.16;;;6.62;100.00
25238;BME280;13185;50.872;5.306;2024-03-23T03:25:09;100785.38;;;6.60;100.00
25238;BME280;13185;50.872;5.306;2024-03-23T03:27:35;100775.56;;;6.60;100.00
25238;BME280;13185;50.872;5.306;2024-03-23T03:30:01;100773.84;;;6.59;100.00
25238;BME280;13185;50.872;5.306;2024-03-23T03:32:30;100775.56;;;6.60;100.00
25238;BME280;13185;50.872;5.306;2024-03-23T03:34:55;100773.84;;;6.59;100.00
25238;BME280;13185;50.872;5.306;2024-03-23T03:37:21;100768.59;;;6.58;100.00
25238;BME280;13185;50.872;5.306;2024-03-23T03:39:46;100769.38;;;6.60;100.00
25238;BME280;13185;50.872;5.306;2024-03-23T03:42:12;100763.13;;;6.61;100.00
25238;BME280;13185;50.872;5.306;2024-03-23T03:44:38;100755.13;;;6.61;100.00
25238;BME280;13185;50.872;5.306;2024-03-23T03:47:05;100759.50;;;6.62;100.00
25238;BME280;13185;50.872;5.306;2024-03-23T03:49:31;100742.66;;;6.61;100.00
25238;BME280;13185;50.872;5.306;2024-03-23T03:51:56;100747.13;;;6.61;100.00
25238;BME280;13185;50.872;5.306;2024-03-23T03:54:22;100742.75;;;6.60;100.00
25238;BME280;13185;50.872;5.306;2024-03-23T03:56:47;100744.47;;;6.61;100.00
25238;BME280;13185;50.872;5.306;2024-03-23T03:59:13;100746.25;;;6.60;100.00
25238;BME280;13185;50.872;5.306;2024-03-23T04:01:39;100755.28;;;6.58;100.00
25238;BME280;13185;50.872;5.306;2024-03-23T04:04:05;100747.34;;;6.56;100.00
25238;BME280;13185;50.872;5.306;2024-03-23T04:06:30;100753.59;;;6.55;100.00
25238;BME280;13185;50.872;5.306;2024-03-23T04:08:56;100761.69;;;6.54;100.00
25238;BME280;13185;50.872;5.306;2024-03-23T04:11:21;100752.81;;;6.53;100.00
25238;BME280;13185;50.872;5.306;2024-03-23T04:13:47;100754.72;;;6.51;100.00
25238;BME280;13185;50.872;5.306;2024-03-23T04:16:13;100747.75;;;6.49;100.00
25238;BME280;13185;50.872;5.306;2024-03-23T04:18:38;100752.28;;;6.47;100.00
25238;BME280;13185;50.872;5.306;2024-03-23T04:21:04;100750.63;;;6.44;100.00
25238;BME280;13185;50.872;5.306;2024-03-23T04:23:29;100748.97;;;6.42;100.00
25238;BME280;13185;50.872;5.306;2024-03-23T04:25:55;100750.84;;;6.40;100.00
25238;BME280;13185;50.872;5.306;2024-03-23T04:28:20;100752.75;;;6.38;100.00
25238;BME280;13185;50.872;5.306;2024-03-23T04:30:46;100749.22;;;6.37;100.00
25238;BME280;13185;50.872;5.306;2024-03-23T04:33:11;100748.47;;;6.33;100.00
25238;BME280;13185;50.872;5.306;2024-03-23T04:35:37;100753.81;;;6.33;100.00
25238;BME280;13185;50.872;5.306;2024-03-23T04:38:03;100750.38;;;6.31;100.00
25238;BME280;13185;50.872;5.306;2024-03-23T04:40:28;100757.56;;;6.29;100.00
25238;BME280;13185;50.872;5.306;2024-03-23T04:42:54;100756.78;;;6.27;100.00
25238;BME280;13185;50.872;5.306;2024-03-23T04:45:19;100753.34;;;6.25;100.00
25238;BME280;13185;50.872;5.306;2024-03-23T04:47:45;100751.81;;;6.20;100.00
25238;BME280;13185;50.872;5.306;2024-03-23T04:50:10;100758.25;;;6.16;100.00
25238;BME280;13185;50.872;5.306;2024-03-23T04:52:36;100753.81;;;6.15;100.00
25238;BME280;13185;50.872;5.306;2024-03-23T04:55:02;100757.44;;;6.14;100.00
25238;BME280;13185;50.872;5.306;2024-03-23T04:57:29;100759.31;;;6.12;100.00
25238;BME280;13185;50.872;5.306;2024-03-23T04:59:54;100761.28;;;6.08;100.00
25238;BME280;13185;50.872;5.306;2024-03-23T05:02:20;100766.59;;;6.08;100.00
25238;BME280;13185;50.872;5.306;2024-03-23T05:04:47;100766.50;;;6.10;100.00
25238;BME280;13185;50.872;5.306;2024-03-23T05:07:13;100757.75;;;6.07;100.00
25238;BME280;13185;50.872;5.306;2024-03-23T05:09:38;100756.97;;;6.05;100.00
25238;BME280;13185;50.872;5.306;2024-03-23T05:12:04;100757.94;;;6.03;100.00
25238;BME280;13185;50.872;5.306;2024-03-23T05:14:30;100755.34;;;6.01;100.00
25238;BME280;13185;50.872;5.306;2024-03-23T05:16:55;100754.50;;;6.01;100.00
25238;BME280;13185;50.872;5.306;2024-03-23T05:19:21;100757.16;;;6.01;100.00
25238;BME280;13185;50.872;5.306;2024-03-23T05:21:47;100758.97;;;6.00;100.00
25238;BME280;13185;50.872;5.306;2024-03-23T05:24:13;100750.97;;;6.00;100.00
25238;BME280;13185;50.872;5.306;2024-03-23T05:26:38;100762.47;;;6.01;100.00
25238;BME280;13185;50.872;5.306;2024-03-23T05:29:04;100765.22;;;5.99;100.00
25238;BME280;13185;50.872;5.306;2024-03-23T05:31:30;100757.16;;;6.01;100.00
25238;BME280;13185;50.872;5.306;2024-03-23T05:33:56;100764.22;;;6.02;100.00
25238;BME280;13185;50.872;5.306;2024-03-23T05:36:22;100763.28;;;6.03;100.00
25238;BME280;13185;50.872;5.306;2024-03-23T05:38:49;100755.28;;;6.03;100.00
25238;BME280;13185;50.872;5.306;2024-03-23T05:41:15;100761.47;;;6.03;100.00
25238;BME280;13185;50.872;5.306;2024-03-23T05:43:40;100761.44;;;6.05;100.00
25238;BME280;13185;50.872;5.306;2024-03-23T05:46:06;100751.63;;;6.05;100.00
25238;BME280;13185;50.872;5.306;2024-03-23T05:48:33;100765.00;;;6.04;100.00
25238;BME280;13185;50.872;5.306;2024-03-23T05:50:59;100771.34;;;6.01;100.00
25238;BME280;13185;50.872;5.306;2024-03-23T05:53:24;100767.97;;;5.98;100.00
25238;BME280;13185;50.872;5.306;2024-03-23T05:55:51;100771.50;;;5.98;100.00
25238;BME280;13185;50.872;5.306;2024-03-23T05:58:19;100768.03;;;5.96;100.00
25238;BME280;13185;50.872;5.306;2024-03-23T06:00:45;100772.50;;;5.96;100.00
25238;BME280;13185;50.872;5.306;2024-03-23T06:03:11;100778.69;;;5.96;100.00
25238;BME280;13185;50.872;5.306;2024-03-23T06:05:37;100780.41;;;5.97;100.00
25238;BME280;13185;50.872;5.306;2024-03-23T06:08:03;100778.63;;;5.98;100.00
25238;BME280;13185;50.872;5.306;2024-03-23T06:10:29;100788.16;;;6.02;100.00
25238;BME280;13185;50.872;5.306;2024-03-23T06:12:54;100790.72;;;6.05;100.00
25238;BME280;13185;50.872;5.306;2024-03-23T06:15:20;100794.88;;;6.11;100.00
25238;BME280;13185;50.872;5.306;2024-03-23T06:17:48;100790.31;;;6.13;100.00
25238;BME280;13185;50.872;5.306;2024-03-23T06:20:14;100790.31;;;6.13;100.00
25238;BME280;13185;50.872;5.306;2024-03-23T06:22:39;100800.91;;;6.14;100.00
25238;BME280;13185;50.872;5.306;2024-03-23T06:25:05;100796.38;;;6.16;100.00
25238;BME280;13185;50.872;5.306;2024-03-23T06:27:32;100794.59;;;6.17;100.00
25238;BME280;13185;50.872;5.306;2024-03-23T06:29:58;100789.34;;;6.15;100.00
25238;BME280;13185;50.872;5.306;2024-03-23T06:32:24;100786.59;;;6.17;100.00
25238;BME280;13185;50.872;5.306;2024-03-23T06:34:49;100792.78;;;6.17;100.00
25238;BME280;13185;50.872;5.306;2024-03-23T06:37:15;100797.25;;;6.17;100.00
25238;BME280;13185;50.872;5.306;2024-03-23T06:39:40;100780.47;;;6.15;100.00
25238;BME280;13185;50.872;5.306;2024-03-23T06:42:06;100788.41;;;6.16;100.00
25238;BME280;13185;50.872;5.306;2024-03-23T06:44:31;100796.06;;;6.22;100.00
25238;BME280;13185;50.872;5.306;2024-03-23T06:46:57;100795.00;;;6.26;100.00
25238;BME280;13185;50.872;5.306;2024-03-23T06:49:23;100794.69;;;6.32;100.00
25238;BME280;13185;50.872;5.306;2024-03-23T06:51:49;100791.84;;;6.37;100.00
25238;BME280;13185;50.872;5.306;2024-03-23T06:54:14;100795.28;;;6.39;100.00
25238;BME280;13185;50.872;5.306;2024-03-23T06:56:40;100802.25;;;6.42;100.00
25238;BME280;13185;50.872;5.306;2024-03-23T06:59:06;100789.72;;;6.44;100.00
25238;BME280;13185;50.872;5.306;2024-03-23T07:01:32;100789.44;;;6.50;100.00
25238;BME280;13185;50.872;5.306;2024-03-23T07:03:57;100790.22;;;6.52;100.00
25238;BME280;13185;50.872;5.306;2024-03-23T07:06:23;100794.75;;;6.50;100.00
25238;BME280;13185;50.872;5.306;2024-03-23T07:08:48;100793.13;;;6.47;100.00
25238;BME280;13185;50.872;5.306;2024-03-23T07:11:21;100801.22;;;6.44;100.00
25238;BME280;13185;50.872;5.306;2024-03-23T07:13:49;100797.78;;;6.42;100.00
25238;BME280;13185;50.872;5.306;2024-03-23T07:16:15;100803.19;;;6.41;100.00
25238;BME280;13185;50.872;5.306;2024-03-23T07:18:41;100799.59;;;6.42;100.00
25238;BME280;13185;50.872;5.306;2024-03-23T07:21:07;100794.06;;;6.46;100.00
25238;BME280;13185;50.872;5.306;2024-03-23T07:23:33;100799.78;;;6.56;100.00
25238;BME280;13185;50.872;5.306;2024-03-23T07:25:59;100796.72;;;6.63;100.00
25238;BME280;13185;50.872;5.306;2024-03-23T07:28:25;100801.03;;;6.66;100.00
25238;BME280;13185;50.872;5.306;2024-03-23T07:31:03;100804.19;;;6.74;100.00
25238;BME280;13185;50.872;5.306;2024-03-23T07:33:29;100818.00;;;6.82;100.00
25238;BME280;13185;50.872;5.306;2024-03-23T07:35:55;100804.38;;;6.88;100.00
25238;BME280;13185;50.872;5.306;2024-03-23T07:38:20;100811.38;;;6.91;100.00
25238;BME280;13185;50.872;5.306;2024-03-23T07:40:46;100817.56;;;6.91;100.00
25238;BME280;13185;50.872;5.306;2024-03-23T07:43:11;100812.38;;;6.88;100.00
25238;BME280;13185;50.872;5.306;2024-03-23T07:45:37;100811.66;;;6.85;100.00
25238;BME280;13185;50.872;5.306;2024-03-23T07:48:04;100805.38;;;6.86;100.00
25238;BME280;13185;50.872;5.306;2024-03-23T07:50:29;100813.38;;;6.86;100.00
25238;BME280;13185;50.872;5.306;2024-03-23T07:52:55;100808.22;;;6.83;100.00
25238;BME280;13185;50.872;5.306;2024-03-23T07:55:20;100811.81;;;6.82;100.00
25238;BME280;13185;50.872;5.306;2024-03-23T07:57:46;100810.25;;;6.78;100.00
25238;BME280;13185;50.872;5.306;2024-03-23T08:00:12;100805.72;;;6.80;100.00
25238;BME280;13185;50.872;5.306;2024-03-23T08:02:38;100820.75;;;6.81;100.00
25238;BME280;13185;50.872;5.306;2024-03-23T08:05:04;100818.78;;;6.84;100.00
25238;BME280;13185;50.872;5.306;2024-03-23T08:07:29;100825.38;;;6.94;100.00
25238;BME280;13185;50.872;5.306;2024-03-23T08:09:55;100824.69;;;7.08;100.00
25238;BME280;13185;50.872;5.306;2024-03-23T08:12:20;100830.41;;;7.18;100.00
25238;BME280;13185;50.872;5.306;2024-03-23T08:14:46;100818.75;;;7.20;100.00
25238;BME280;13185;50.872;5.306;2024-03-23T08:17:11;100827.75;;;7.18;100.00
25238;BME280;13185;50.872;5.306;2024-03-23T08:19:37;100821.81;;;7.13;100.00
25238;BME280;13185;50.872;5.306;2024-03-23T08:22:02;100825.16;;;7.16;100.00
25238;BME280;13185;50.872;5.306;2024-03-23T08:24:28;100833.16;;;7.16;100.00
25238;BME280;13185;50.872;5.306;2024-03-23T08:26:54;100827.81;;;7.16;100.00
25238;BME280;13185;50.872;5.306;2024-03-23T08:29:20;100831.28;;;7.18;100.00
25238;BME280;13185;50.872;5.306;2024-03-23T08:31:45;100832.13;;;7.19;100.00
25238;BME280;13185;50.872;5.306;2024-03-23T08:34:11;100830.38;;;7.19;100.00
25238;BME280;13185;50.872;5.306;2024-03-23T08:36:36;100842.03;;;7.17;100.00
25238;BME280;13185;50.872;5.306;2024-03-23T08:39:02;100836.84;;;7.14;100.00
25238;BME280;13185;50.872;5.306;2024-03-23T08:41:27;100835.13;;;7.13;100.00
25238;BME280;13185;50.872;5.306;2024-03-23T08:43:53;100832.69;;;7.08;100.00
25238;BME280;13185;50.872;5.306;2024-03-23T08:46:18;100831.91;;;7.06;100.00
25238;BME280;13185;50.872;5.306;2024-03-23T08:48:46;100835.69;;;7.02;100.00
25238;BME280;13185;50.872;5.306;2024-03-23T08:51:15;100825.78;;;7.04;100.00
25238;BME280;13185;50.872;5.306;2024-03-23T08:53:42;100824.63;;;7.10;100.00
25238;BME280;13185;50.872;5.306;2024-03-23T08:56:08;100830.81;;;7.10;100.00
25238;BME280;13185;50.872;5.306;2024-03-23T08:58:35;100832.47;;;7.13;100.00
25238;BME280;13185;50.872;5.306;2024-03-23T09:01:08;100820.00;;;7.13;100.00
25238;BME280;13185;50.872;5.306;2024-03-23T09:03:35;100829.25;;;7.23;100.00
25238;BME280;13185;50.872;5.306;2024-03-23T09:06:02;100826.41;;;7.27;100.00
25238;BME280;13185;50.872;5.306;2024-03-23T09:08:27;100821.94;;;7.27;100.00
25238;BME280;13185;50.872;5.306;2024-03-23T09:10:53;100820.78;;;7.33;100.00
25238;BME280;13185;50.872;5.306;2024-03-23T09:13:19;100814.97;;;7.42;100.00
25238;BME280;13185;50.872;5.306;2024-03-23T09:15:51;100815.19;;;7.55;100.00
25238;BME280;13185;50.872;5.306;2024-03-23T09:18:21;100808.00;;;7.72;100.00
25238;BME280;13185;50.872;5.306;2024-03-23T09:20:47;100821.63;;;7.84;100.00
25238;BME280;13185;50.872;5.306;2024-03-23T09:23:12;100812.59;;;7.86;100.00
25238;BME280;13185;50.872;5.306;2024-03-23T09:25:38;100807.16;;;7.88;100.00
25238;BME280;13185;50.872;5.306;2024-03-23T09:28:08;100806.22;;;7.89;100.00
25238;BME280;13185;50.872;5.306;2024-03-23T09:30:35;100804.31;;;7.91;100.00
25238;BME280;13185;50.872;5.306;2024-03-23T09:33:00;100800.19;;;8.01;100.00
25238;BME280;13185;50.872;5.306;2024-03-23T09:35:26;100804.34;;;8.06;100.00
25238;BME280;13185;50.872;5.306;2024-03-23T09:37:52;100801.78;;;8.05;100.00
25238;BME280;13185;50.872;5.306;2024-03-23T09:40:17;100794.53;;;8.07;100.00
25238;BME280;13185;50.872;5.306;2024-03-23T09:42:49;100795.75;;;8.17;100.00
25238;BME280;13185;50.872;5.306;2024-03-23T09:45:21;100794.28;;;8.27;100.00
25238;BME280;13185;50.872;5.306;2024-03-23T09:47:47;100798.66;;;8.13;99.63
25238;BME280;13185;50.872;5.306;2024-03-23T09:50:13;100803.59;;;8.04;96.30
25238;BME280;13185;50.872;5.306;2024-03-23T09:52:40;100804.72;;;8.16;97.33
25238;BME280;13185;50.872;5.306;2024-03-23T09:55:08;100803.25;;;8.26;96.24
25238;BME280;13185;50.872;5.306;2024-03-23T09:57:33;100798.00;;;8.25;96.16
25238;BME280;13185;50.872;5.306;2024-03-23T09:59:59;100806.75;;;8.11;94.81
25238;BME280;13185;50.872;5.306;2024-03-23T10:02:25;100804.09;;;8.11;97.04
25238;BME280;13185;50.872;5.306;2024-03-23T10:04:51;100809.69;;;8.06;95.79
25238;BME280;13185;50.872;5.306;2024-03-23T10:07:20;100811.50;;;8.06;97.37
25238;BME280;13185;50.872;5.306;2024-03-23T10:09:47;100792.13;;;8.18;97.77
25238;BME280;13185;50.872;5.306;2024-03-23T10:12:15;100819.78;;;8.33;96.12
25238;BME280;13185;50.872;5.306;2024-03-23T10:14:41;100807.66;;;8.43;96.79
25238;BME280;13185;50.872;5.306;2024-03-23T10:19:39;100804.19;;;8.25;94.04
25238;BME280;13185;50.872;5.306;2024-03-23T10:22:04;100822.63;;;8.14;93.51
25238;BME280;13185;50.872;5.306;2024-03-23T10:24:30;100804.53;;;8.03;92.43
25238;BME280;13185;50.872;5.306;2024-03-23T10:26:56;100817.94;;;8.02;93.73
25238;BME280;13185;50.872;5.306;2024-03-23T10:29:22;100800.19;;;8.01;91.50
25238;BME280;13185;50.872;5.306;2024-03-23T10:31:47;100801.50;;;7.94;89.50
25238;BME280;13185;50.872;5.306;2024-03-23T10:34:13;100800.09;;;7.87;86.54
25238;BME280;13185;50.872;5.306;2024-03-23T10:36:39;100794.22;;;7.80;85.36
25238;BME280;13185;50.872;5.306;2024-03-23T10:39:07;100793.03;;;7.86;87.30
25238;BME280;13185;50.872;5.306;2024-03-23T10:41:33;100792.91;;;8.04;88.50
25238;BME280;13185;50.872;5.306;2024-03-23T10:43:58;100791.50;;;8.29;89.57
25238;BME280;13185;50.872;5.306;2024-03-23T10:46:25;100795.94;;;8.46;85.91
25238;BME280;13185;50.872;5.306;2024-03-23T10:48:50;100793.88;;;8.51;80.27
25238;BME280;13185;50.872;5.306;2024-03-23T10:51:16;100779.81;;;8.47;77.19
25238;BME280;13185;50.872;5.306;2024-03-23T10:53:42;100777.56;;;8.55;79.03
25238;BME280;13185;50.872;5.306;2024-03-23T10:56:08;100824.91;;;8.69;81.74
25238;BME280;13185;50.872;5.306;2024-03-23T10:58:44;100767.44;;;8.76;82.48
25238;BME280;13185;50.872;5.306;2024-03-23T11:01:11;100782.88;;;8.87;82.00
25238;BME280;13185;50.872;5.306;2024-03-23T11:03:38;100777.44;;;9.03;81.62
25238;BME280;13185;50.872;5.306;2024-03-23T11:06:05;100767.06;;;9.12;79.67
25238;BME280;13185;50.872;5.306;2024-03-23T11:08:38;100783.53;;;9.20;79.08
25238;BME280;13185;50.872;5.306;2024-03-23T11:11:24;100780.94;;;9.19;75.45
25238;BME280;13185;50.872;5.306;2024-03-23T11:13:51;100777.22;;;9.21;77.41
25238;BME280;13185;50.872;5.306;2024-03-23T11:16:22;100779.88;;;9.07;74.73
25238;BME280;13185;50.872;5.306;2024-03-23T11:18:49;100788.47;;;9.12;77.46
25238;BME280;13185;50.872;5.306;2024-03-23T11:21:51;100778.81;;;9.10;75.09
25238;BME280;13185;50.872;5.306;2024-03-23T11:24:19;100781.75;;;9.05;74.70
25238;BME280;13185;50.872;5.306;2024-03-23T11:26:45;100764.03;;;9.18;74.94
25238;BME280;13185;50.872;5.306;2024-03-23T11:29:11;100784.59;;;9.32;74.54
25238;BME280;13185;50.872;5.306;2024-03-23T11:31:38;100762.22;;;9.33;71.11
25238;BME280;13185;50.872;5.306;2024-03-23T11:34:06;100771.97;;;9.34;71.80
25238;BME280;13185;50.872;5.306;2024-03-23T11:36:32;100769.88;;;9.39;71.81
25238;BME280;13185;50.872;5.306;2024-03-23T11:38:58;100760.34;;;9.49;73.13
25238;BME280;13185;50.872;5.306;2024-03-23T11:41:23;100761.09;;;9.51;73.13
25238;BME280;13185;50.872;5.306;2024-03-23T11:43:50;100748.28;;;9.57;74.63
25238;BME280;13185;50.872;5.306;2024-03-23T11:46:22;100754.13;;;9.63;76.02
25238;BME280;13185;50.872;5.306;2024-03-23T11:48:51;100755.19;;;9.61;74.73
25238;BME280;13185;50.872;5.306;2024-03-23T11:51:17;100755.19;;;9.61;73.16
25238;BME280;13185;50.872;5.306;2024-03-23T11:53:42;100741.22;;;9.41;71.07
25238;BME280;13185;50.872;5.306;2024-03-23T11:56:08;100740.25;;;9.42;71.76
25238;BME280;13185;50.872;5.306;2024-03-23T11:58:34;100740.13;;;9.58;73.23
25238;BME280;13185;50.872;5.306;2024-03-23T12:01:03;100739.56;;;9.81;72.60
25238;BME280;13185;50.872;5.306;2024-03-23T12:03:31;100761.88;;;9.82;70.74
25238;BME280;13185;50.872;5.306;2024-03-23T12:06:02;100757.06;;;9.44;72.68
25238;BME280;13185;50.872;5.306;2024-03-23T12:08:32;100759.31;;;9.08;73.22
25238;BME280;13185;50.872;5.306;2024-03-23T12:11:12;100756.69;;;8.92;74.70
25238;BME280;13185;50.872;5.306;2024-03-23T12:13:41;100753.69;;;8.82;74.81
25238;BME280;13185;50.872;5.306;2024-03-23T12:16:17;100760.34;;;8.75;75.16
25238;BME280;13185;50.872;5.306;2024-03-23T12:18:48;100740.28;;;8.68;75.64
25238;BME280;13185;50.872;5.306;2024-03-23T12:21:15;100743.69;;;8.56;75.58
25238;BME280;13185;50.872;5.306;2024-03-23T12:23:41;100734.38;;;8.47;76.01
25238;BME280;13185;50.872;5.306;2024-03-23T12:26:07;100717.72;;;8.58;77.23
25238;BME280;13185;50.872;5.306;2024-03-23T12:28:33;100716.13;;;8.70;78.22
25238;BME280;13185;50.872;5.306;2024-03-23T12:30:58;100706.63;;;8.80;77.73
25238;BME280;13185;50.872;5.306;2024-03-23T12:33:24;100711.97;;;8.94;77.94
25238;BME280;13185;50.872;5.306;2024-03-23T12:35:50;100703.34;;;9.19;78.55
25238;BME280;13185;50.872;5.306;2024-03-23T12:38:16;100704.41;;;9.45;77.74
25238;BME280;13185;50.872;5.306;2024-03-23T12:40:46;100683.44;;;9.66;76.81
25238;BME280;13185;50.872;5.306;2024-03-23T12:43:14;100674.13;;;9.86;73.41
25238;BME280;13185;50.872;5.306;2024-03-23T12:45:39;100671.00;;;10.06;73.18
25238;BME280;13185;50.872;5.306;2024-03-23T12:48:05;100669.41;;;10.30;73.25
25238;BME280;13185;50.872;5.306;2024-03-23T12:50:30;100677.53;;;10.43;72.49
25238;BME280;13185;50.872;5.306;2024-03-23T12:52:56;100677.06;;;10.36;69.40
25238;BME280;13185;50.872;5.306;2024-03-23T12:55:21;100671.34;;;10.28;67.48
25238;BME280;13185;50.872;5.306;2024-03-23T12:57:47;100667.06;;;10.26;68.39
25238;BME280;13185;50.872;5.306;2024-03-23T13:00:13;100667.31;;;10.21;70.08
25238;BME280;13185;50.872;5.306;2024-03-23T13:02:41;100689.56;;;10.09;69.05
25238;BME280;13185;50.872;5.306;2024-03-23T13:05:07;100696.38;;;10.00;68.85
25238;BME280;13185;50.872;5.306;2024-03-23T13:07:35;100691.13;;;9.99;70.47
25238;BME280;13185;50.872;5.306;2024-03-23T13:10:03;100698.72;;;9.92;72.92
25238;BME280;13185;50.872;5.306;2024-03-23T13:12:29;100693.25;;;9.79;73.45
25238;BME280;13185;50.872;5.306;2024-03-23T13:14:54;100697.41;;;9.71;73.13
25238;BME280;13185;50.872;5.306;2024-03-23T13:17:20;100682.00;;;9.74;74.23
25238;BME280;13185;50.872;5.306;2024-03-23T13:19:45;100678.41;;;9.88;71.54
25238;BME280;13185;50.872;5.306;2024-03-23T13:22:11;100676.97;;;9.97;67.16
25238;BME280;13185;50.872;5.306;2024-03-23T13:24:37;100678.84;;;10.09;67.63
25238;BME280;13185;50.872;5.306;2024-03-23T13:27:03;100663.53;;;10.11;65.74
25238;BME280;13185;50.872;5.306;2024-03-23T13:29:29;100670.25;;;10.04;64.44
25238;BME280;13185;50.872;5.306;2024-03-23T13:31:55;100686.56;;;9.87;66.10
25238;BME280;13185;50.872;5.306;2024-03-23T13:34:20;100691.78;;;9.61;64.26
25238;BME280;13185;50.872;5.306;2024-03-23T13:36:47;100675.72;;;9.47;64.27
25238;BME280;13185;50.872;5.306;2024-03-23T13:39:13;100676.94;;;9.55;64.41
25238;BME280;13185;50.872;5.306;2024-03-23T13:41:45;100675.19;;;9.69;65.08
25238;BME280;13185;50.872;5.306;2024-03-23T13:44:12;100662.94;;;9.79;62.36